Thunder radar more information blitzortung!


Radar de pluja more information rain snow radar


Visita la nostra xarxa de llocs de meteo:

Template documentation
and downloads

And another site



No particular awareness of the weather is required.    There are no Weather-warnings

Pagina Historial Weather Underground text

Diari Resum Novembre 16, 2017 Unitats:  Imperial    Mètric   Tant
« Previous Dia
SegĂźent Dia »
Diari Setmana Mensual Anual Personalitzada
  Maxima: Minima: Media:
Temperatura: 59.5 °F 36.5 °F 50.4 °F
Punt de rosada: 45.1 °F 23.9 °F 34 °F
Humitat: 62 % 48 % 53 %
Wind Speed: 6.9 mph 0 mph 2 mph
RĂ fegues de vent: 6.9 mph - -
Vent:- - South
Pression baro: 30.2 in 30.1 in -
Precipitacions: 0 in    
Historical Graphs
 
 
Dades de taula per Novembre 16, 2017
Temps Temperatura Punt de rosada Pression baro Vent Wind Speed RĂ fegues de vent Humitat Rainfall Rate (Hourly)
00:04 41.4 °F 25 °F 30.1 in Calm     52 % 0 in
00:05 37.2 °F 24.6 °F 30.1 in Calm   2 mph 60 % 0 in
00:09 41.2 °F 25 °F 30.1 in Calm     52 % 0 in
00:15 37.2 °F 24.3 °F 30.1 in West 1 mph 2 mph 59 % 0 in
00:25 37.2 °F 24.6 °F 30.1 in Calm   2 mph 60 % 0 in
00:35 37.4 °F 24.8 °F 30.1 in SW 2 mph 2 mph 60 % 0 in
00:45 36.7 °F 24.1 °F 30.1 in SW 1 mph 2 mph 60 % 0 in
00:55 36.7 °F 24.1 °F 30.1 in SW 1 mph 1 mph 60 % 0 in
01:05 36.7 °F 24.4 °F 30.1 in Calm   1 mph 61 % 0 in
01:15 37 °F 24.4 °F 30.1 in Calm   2 mph 60 % 0 in
01:25 37 °F 24.8 °F 30.1 in Calm   1 mph 61 % 0 in
01:35 36.5 °F 23.9 °F 30.1 in WSW 2 mph 3 mph 60 % 0 in
01:45 36.5 °F 24.3 °F 30.1 in WSW 1 mph 2 mph 61 % 0 in
01:55 36.7 °F 24.1 °F 30.1 in SW 2 mph 2 mph 60 % 0 in
02:05 36.9 °F 24.6 °F 30.1 in Calm   2 mph 61 % 0 in
02:15 37.6 °F 25.3 °F 30.1 in Calm     61 % 0 in
02:25 39 °F 27.1 °F 30.1 in Calm     62 % 0 in
02:35 39.2 °F 26.4 °F 30.1 in Calm     60 % 0 in
02:45 39.7 °F 26.6 °F 30.1 in SW 1 mph 1 mph 59 % 0 in
02:55 41.5 °F 28.2 °F 30.1 in Calm   1 mph 59 % 0 in
03:05 42.8 °F 28.6 °F 30.1 in Calm   1 mph 57 % 0 in
03:15 43.5 °F 29.3 °F 30.1 in Calm   1 mph 57 % 0 in
03:25 45 °F 30.2 °F 30.2 in Calm     56 % 0 in
03:35 45 °F 29.8 °F 30.2 in SW 1 mph 1 mph 55 % 0 in
03:55 43.7 °F 28.6 °F 30.2 in SW 1 mph 2 mph 55 % 0 in
04:05 45.7 °F 30 °F 30.2 in SW 1 mph 2 mph 54 % 0 in
04:15 46.9 °F 31.1 °F 30.2 in Calm   2 mph 54 % 0 in
04:25 47.8 °F 32 °F 30.2 in Calm   3 mph 54 % 0 in
04:35 48.6 °F 32.7 °F 30.2 in SE 1 mph 2 mph 54 % 0 in
10:36 49.3 °F 33.3 °F 30.2 in SSE 1.2 mph   54 % 0 in
10:37 49.5 °F 33.4 °F 30.2 in SE 2.3 mph 2.3 mph 54 % 0 in
10:42 49.3 °F 32.9 °F 30.2 in East 2.3 mph 2.3 mph 53 % 0 in
10:47 50.2 °F 33.6 °F 30.2 in WNW 1.2 mph   53 % 0 in
10:52 50 °F 33.1 °F 30.2 in ESE 2.3 mph 2.3 mph 52 % 0 in
10:57 50.2 °F 33.3 °F 30.2 in East 3.5 mph 3.5 mph 52 % 0 in
11:02 50.7 °F 33.6 °F 30.2 in ENE 2.3 mph 2.3 mph 52 % 0 in
11:07 51.1 °F 34.2 °F 30.2 in WNW 2.3 mph 2.3 mph 52 % 0 in
11:12 51.1 °F 34.2 °F 30.2 in NW 2.3 mph 2.3 mph 52 % 0 in
11:17 51.6 °F 34.5 °F 30.2 in NNE 2.3 mph 2.3 mph 52 % 0 in
11:22 51.8 °F 34.7 °F 30.2 in NNE 2.3 mph 2.3 mph 52 % 0 in
11:27 52.2 °F 35.1 °F 30.2 in SE 2.3 mph 2.3 mph 52 % 0 in
11:32 53.1 °F 36 °F 30.2 in East 2.3 mph 2.3 mph 52 % 0 in
11:42 54.1 °F 36.3 °F 30.2 in East 2.3 mph 2.3 mph 51 % 0 in
11:47 53.6 °F 36 °F 30.2 in ENE 3.5 mph 3.5 mph 51 % 0 in
11:52 53.8 °F 36.1 °F 30.2 in ENE 2.3 mph 2.3 mph 51 % 0 in
11:57 53.6 °F 36 °F 30.2 in East 2.3 mph 2.3 mph 51 % 0 in
12:02 54.1 °F 36.3 °F 30.2 in ESE 3.5 mph 3.5 mph 51 % 0 in
12:07 54.5 °F 36.7 °F 30.2 in East 3.1 mph 3.1 mph 51 % 0 in
12:12 54.7 °F 36.3 °F 30.2 in ENE 4.6 mph 4.6 mph 50 % 0 in
12:17 55.4 °F 37.6 °F 30.2 in WSW 1.4 mph   51 % 0 in
12:22 55.4 °F 37.6 °F 30.2 in ESE 2.3 mph 2.3 mph 51 % 0 in
12:27 55.9 °F 37.6 °F 30.2 in ENE 3.5 mph 3.5 mph 50 % 0 in
12:32 55.9 °F 37.6 °F 30.2 in ESE 3.5 mph 3.5 mph 50 % 0 in
12:37 55.8 °F 37.4 °F 30.2 in ESE 2.9 mph 2.9 mph 50 % 0 in
12:42 56.5 °F 38.1 °F 30.2 in NNE 1.4 mph 1.4 mph 50 % 0 in
12:47 56.8 °F 38.5 °F 30.2 in SSE 2.4 mph 2.4 mph 50 % 0 in
12:52 57.2 °F 38.7 °F 30.2 in ESE 3.5 mph 3.5 mph 50 % 0 in
12:57 56.8 °F 38.5 °F 30.2 in ENE 2.4 mph 2.4 mph 50 % 0 in
13:02 57 °F 38.5 °F 30.2 in East 2.3 mph 2.3 mph 50 % 0 in
13:07 57.7 °F 39.2 °F 30.1 in East 1.2 mph 1.2 mph 50 % 0 in
13:12 57.2 °F 38.7 °F 30.1 in ESE 3.5 mph 3.5 mph 50 % 0 in
13:17 57.6 °F 39 °F 30.1 in ESE 3.5 mph 3.5 mph 50 % 0 in
13:22 57.7 °F 39.2 °F 30.1 in ESE 3.5 mph 3.5 mph 50 % 0 in
13:27 57.9 °F 39.4 °F 30.1 in SW 3.5 mph 3.5 mph 50 % 0 in
13:32 59.2 °F 41.2 °F 30.1 in SW 2.3 mph 2.3 mph 51 % 0 in
13:37 59.2 °F 40.5 °F 30.1 in ESE 2.3 mph 2.3 mph 50 % 0 in
13:42 59.2 °F 40.5 °F 30.1 in East 1.6 mph   50 % 0 in
13:47 59.2 °F 40.5 °F 30.1 in ESE 3.5 mph 3.5 mph 50 % 0 in
13:52 59 °F 40.5 °F 30.1 in ESE 4.6 mph 4.6 mph 50 % 0 in
13:57 59.2 °F 40.5 °F 30.1 in WSW 3.6 mph 3.6 mph 50 % 0 in
14:02 59.2 °F 39.9 °F 30.1 in East 4.6 mph 4.6 mph 49 % 0 in
14:07 59.4 °F 40.3 °F 30.1 in WSW 2.9 mph 2.9 mph 49 % 0 in
14:12 59.5 °F 40.3 °F 30.1 in SW 2.2 mph 2.2 mph 49 % 0 in
14:17 59.4 °F 40.3 °F 30.1 in ESE 4.6 mph 4.6 mph 49 % 0 in
14:22 59.5 °F 40.3 °F 30.1 in ESE 3.5 mph 3.5 mph 49 % 0 in
14:27 59.2 °F 39.6 °F 30.1 in ESE 4.6 mph 4.6 mph 48 % 0 in
14:32 59.2 °F 39.6 °F 30.1 in East 4.6 mph 4.6 mph 48 % 0 in
14:37 59.2 °F 39.6 °F 30.1 in ESE 4.6 mph 4.6 mph 48 % 0 in
14:42 59.2 °F 39.6 °F 30.1 in ESE 3.5 mph 3.5 mph 48 % 0 in
14:47 59.2 °F 39.6 °F 30.1 in SE 3.5 mph 3.5 mph 48 % 0 in
14:52 59.4 °F 39.7 °F 30.1 in ESE 3.5 mph 3.5 mph 48 % 0 in
14:57 59.4 °F 40.3 °F 30.1 in SE 3.5 mph 3.5 mph 49 % 0 in
15:02 59.4 °F 40.3 °F 30.1 in East 4.6 mph 4.6 mph 49 % 0 in
15:07 59.4 °F 40.3 °F 30.1 in ESE 4.6 mph 4.6 mph 49 % 0 in
15:12 59.4 °F 40.3 °F 30.1 in East 4.6 mph 4.6 mph 49 % 0 in
15:17 59.4 °F 40.6 °F 30.1 in ESE 4 mph 4 mph 50 % 0 in
15:22 59.4 °F 40.6 °F 30.1 in ESE 4.6 mph 4.6 mph 50 % 0 in
15:27 59.4 °F 41.2 °F 30.1 in ESE 6.2 mph 6.2 mph 51 % 0 in
15:37 59.4 °F 41.2 °F 30.1 in ESE 5.8 mph 5.8 mph 51 % 0 in
15:42 59.2 °F 41.5 °F 30.1 in ESE 4.6 mph 4.6 mph 52 % 0 in
15:47 59.2 °F 41.5 °F 30.1 in ESE 3.5 mph 3.5 mph 52 % 0 in
15:52 59.4 °F 42.3 °F 30.1 in ESE 5.8 mph 5.8 mph 53 % 0 in
15:57 59.2 °F 42.4 °F 30.1 in ESE 4.6 mph 4.6 mph 54 % 0 in
16:02 58.8 °F 42.6 °F 30.1 in ENE 6.9 mph 6.9 mph 55 % 0 in
16:07 58.6 °F 43.3 °F 30.1 in East 5.4 mph 5.4 mph 57 % 0 in
16:12 58.5 °F 44.2 °F 30.1 in ESE 6.9 mph 6.9 mph 59 % 0 in
16:22 58.6 °F 44.8 °F 30.1 in ESE 4.6 mph 4.6 mph 60 % 0 in
16:23 58.6 °F 44.8 °F 30.1 in ESE 4.6 mph 4.6 mph 60 % 0 in
16:28 58.5 °F 45.1 °F 30.1 in ESE 4.6 mph 4.6 mph 61 % 0 in
16:33 58.3 °F 45 °F 30.1 in ESE 4.6 mph 4.6 mph 61 % 0 in
16:38 58.5 °F 45.1 °F 30.1 in SSW 3.5 mph 3.5 mph 61 % 0 in
16:43 59 °F 45.1 °F 30.1 in SW 4.6 mph 4.6 mph 60 % 0 in
16:48 59.4 °F 44.1 °F 30.1 in WSW 3.5 mph 3.5 mph 57 % 0 in
16:53 59.2 °F 43.5 °F 30.1 in SSW 4.6 mph 4.6 mph 56 % 0 in
16:58 59 °F 42.8 °F 30.1 in SSW 2.9 mph 2.9 mph 55 % 0 in
17:03 58.8 °F 42.6 °F 30.1 in SW 2.3 mph 2.3 mph 55 % 0 in
17:13 57.9 °F 41.4 °F 30.1 in SW 4.6 mph 4.6 mph 54 % 0 in
17:18 57.7 °F 41.2 °F 30.1 in SW 2.4 mph 2.4 mph 54 % 0 in
17:23 57.2 °F 40.6 °F 30.1 in SW 3.5 mph 3.5 mph 54 % 0 in
17:28 56.8 °F 40.5 °F 30.1 in SW 3.6 mph 3.6 mph 54 % 0 in
17:33 56.5 °F 39.9 °F 30.1 in SW 2.3 mph 2.3 mph 54 % 0 in
17:38 56.1 °F 39.2 °F 30.1 in SW 2.3 mph 2.3 mph 53 % 0 in
17:43 55.8 °F 38.8 °F 30.1 in WSW 2.3 mph 2.3 mph 53 % 0 in
17:48 55.4 °F 38.5 °F 30.1 in WSW 2.3 mph 2.3 mph 53 % 0 in
17:58 54.7 °F 37.9 °F 30.1 in WSW 2.2 mph 2.2 mph 53 % 0 in
18:03 54.5 °F 37.8 °F 30.1 in SW 3.5 mph 3.5 mph 53 % 0 in
18:08 54.1 °F 37.4 °F 30.1 in SW 2.3 mph 2.3 mph 53 % 0 in
18:13 54 °F 37.2 °F 30.1 in WSW 2.3 mph 2.3 mph 53 % 0 in
18:18 53.8 °F 37 °F 30.1 in WSW 2.3 mph 2.3 mph 53 % 0 in
18:23 53.6 °F 36.9 °F 30.1 in SW 2.3 mph 2.3 mph 53 % 0 in
18:28 53.4 °F 36.7 °F 30.1 in WSW 2.3 mph 2.3 mph 53 % 0 in
18:33 53.2 °F 36.5 °F 30.1 in WSW 2.3 mph 2.3 mph 53 % 0 in
18:38 53.2 °F 36.5 °F 30.1 in WSW 1.4 mph 1.4 mph 53 % 0 in
18:43 53.2 °F 36.1 °F 30.1 in WSW 2.3 mph 2.3 mph 52 % 0 in
18:48 53.1 °F 36 °F 30.1 in WSW 1.2 mph 1.2 mph 52 % 0 in
18:53 52.9 °F 35.8 °F 30.1 in WSW 1.2 mph 1.2 mph 52 % 0 in
19:03 52.3 °F 35.2 °F 30.2 in WSW 1.4 mph 1.4 mph 52 % 0 in
19:08 52.2 °F 35.1 °F 30.2 in WSW 1.4 mph 1.4 mph 52 % 0 in
19:13 52 °F 34.9 °F 30.2 in SW 2.3 mph 2.3 mph 52 % 0 in
19:18 52 °F 34.9 °F 30.2 in SW 1.4 mph 1.4 mph 52 % 0 in
19:23 51.8 °F 34.7 °F 30.2 in Calm     52 % 0 in
19:28 51.6 °F 34.5 °F 30.2 in SW 1.2 mph   52 % 0 in
19:33 51.4 °F 34.3 °F 30.2 in Calm     52 % 0 in
19:38 51.4 °F 34.3 °F 30.2 in WSW 2.3 mph 2.3 mph 52 % 0 in
19:43 51.3 °F 34.7 °F 30.2 in WSW 1.4 mph   53 % 0 in
19:48 51.3 °F 34.2 °F 30.2 in WSW 2.6 mph 2.6 mph 52 % 0 in
19:53 51.3 °F 34.2 °F 30.2 in West 2.6 mph 2.6 mph 52 % 0 in
19:58 50.9 °F 34 °F 30.2 in SW 2.4 mph 2.4 mph 52 % 0 in
20:03 50.7 °F 33.6 °F 30.2 in WSW 2.9 mph 2.9 mph 52 % 0 in
20:08 50.7 °F 33.6 °F 30.2 in WSW 3.5 mph 3.5 mph 52 % 0 in
20:13 50.5 °F 33.6 °F 30.2 in WSW 3.5 mph 3.5 mph 52 % 0 in
20:18 50.4 °F 32.9 °F 30.2 in WSW 2.6 mph 2.6 mph 51 % 0 in
20:23 50.4 °F 32.9 °F 30.2 in WSW 1.2 mph 1.2 mph 51 % 0 in
20:28 50 °F 32.5 °F 30.2 in SW 1.2 mph   51 % 0 in
20:33 49.8 °F 32.4 °F 30.2 in WSW 1.2 mph 1.2 mph 51 % 0 in
20:38 49.6 °F 32.2 °F 30.2 in WSW 1.2 mph   51 % 0 in
20:43 49.5 °F 32.2 °F 30.2 in Calm     51 % 0 in
20:48 49.5 °F 31.6 °F 30.2 in Calm     50 % 0 in
20:53 49.3 °F 31.5 °F 30.2 in Calm     50 % 0 in
20:58 49.1 °F 31.3 °F 30.2 in Calm     50 % 0 in
21:03 48.9 °F 31.6 °F 30.2 in Calm     51 % 0 in
21:08 48.9 °F 31.1 °F 30.2 in West 2.3 mph 2.3 mph 50 % 0 in
21:13 48.9 °F 31.1 °F 30.2 in WNW 1.2 mph 1.2 mph 50 % 0 in
21:15 40.8 °F 27.7 °F 30.1 in NNW 1 mph 2 mph 59 % 0 in
21:18 48.9 °F 31.1 °F 30.2 in WNW 1.2 mph   50 % 0 in
21:23 49.1 °F 31.3 °F 30.2 in WNW 1.2 mph   50 % 0 in
21:25 40.6 °F 27.3 °F 30.1 in Calm   2 mph 59 % 0 in
21:28 48.7 °F 30.9 °F 30.2 in Calm     50 % 0 in
21:33 48.6 °F 30.7 °F 30.2 in SSE 2.6 mph 2.6 mph 50 % 0 in
21:35 40.6 °F 27.3 °F 30.1 in North 1 mph 2 mph 59 % 0 in
21:38 47.8 °F 30 °F 30.2 in SW 1.2 mph   50 % 0 in
21:43 47.5 °F 29.7 °F 30.2 in SW 1.2 mph   50 % 0 in
21:45 40.5 °F 27.1 °F 30.1 in Calm   1 mph 59 % 0 in
21:48 47.1 °F 29.8 °F 30.2 in Calm     51 % 0 in
21:53 46.8 °F 29.7 °F 30.2 in Calm     51 % 0 in
21:55 40.1 °F 27 °F 30.1 in WNW 1 mph 1 mph 59 % 0 in
21:58 46.6 °F 29.5 °F 30.2 in SW 1.6 mph 1.6 mph 51 % 0 in
22:03 46.4 °F 29.1 °F 30.2 in Calm     51 % 0 in
22:05 40.1 °F 27 °F 30.1 in Calm     59 % 0 in
22:08 46.2 °F 29.1 °F 30.2 in Calm     51 % 0 in
22:13 45.9 °F 28.8 °F 30.2 in Calm     51 % 0 in
22:15 40.1 °F 27 °F 30.1 in Calm   1 mph 59 % 0 in
22:18 45.9 °F 28.8 °F 30.2 in SW 1.2 mph   51 % 0 in
22:23 45.7 °F 28.9 °F 30.2 in Calm     52 % 0 in
22:25 40.1 °F 27 °F 30.1 in Calm   1 mph 59 % 0 in
22:28 45.3 °F 28.8 °F 30.2 in Calm     52 % 0 in
22:29 45.3 °F 28.8 °F 30.2 in Calm     52 % 0 in
22:34 45.1 °F 28.6 °F 30.2 in Calm     52 % 0 in
22:35 39.7 °F 26.6 °F 30.1 in Calm   1 mph 59 % 0 in
22:39 45.1 °F 28.6 °F 30.2 in NE 2 mph   52 % 0 in
22:44 44.8 °F 28.2 °F 30.2 in NE 2.3 mph 2.3 mph 52 % 0 in
22:45 39.7 °F 26.6 °F 30.1 in Calm     59 % 0 in
22:49 44.6 °F 28.6 °F 30.2 in ENE 1.2 mph 1.2 mph 53 % 0 in
22:54 44.6 °F 28.6 °F 30.2 in Calm     53 % 0 in
22:55 39.7 °F 26.6 °F 30.1 in WNW 1 mph 1 mph 59 % 0 in
22:59 44.4 °F 28.2 °F 30.2 in Calm     53 % 0 in
23:04 44.4 °F 28.2 °F 30.2 in WSW 1.6 mph 1.6 mph 53 % 0 in
23:05 39.9 °F 26.8 °F 30.1 in Calm   1 mph 59 % 0 in
23:09 44.2 °F 28.6 °F 30.2 in Calm     54 % 0 in
23:14 44.1 °F 28.6 °F 30.2 in WSW 1.2 mph 1.2 mph 54 % 0 in
23:15 39.7 °F 26.6 °F 30.1 in North 1 mph 2 mph 59 % 0 in
23:19 44.1 °F 28.6 °F 30.2 in WSW 1.2 mph   54 % 0 in
23:24 44.1 °F 28.6 °F 30.2 in WNW 1.2 mph 1.2 mph 54 % 0 in
23:25 39.6 °F 26.4 °F 30.1 in Calm   1 mph 59 % 0 in
23:29 44.1 °F 28.6 °F 30.2 in ENE 1.6 mph 1.6 mph 54 % 0 in
23:30 44.1 °F 28.6 °F 30.2 in ENE 1.6 mph 1.6 mph 54 % 0 in
23:35 43.9 °F 28.2 °F 30.2 in NE 1.2 mph 1.2 mph 54 % 0 in
23:40 44.1 °F 28.6 °F 30.2 in NE 1.4 mph 1.4 mph 54 % 0 in
23:45 44.4 °F 28.8 °F 30.2 in NW 2 mph 2 mph 54 % 0 in
23:50 44.6 °F 28.9 °F 30.2 in Calm     54 % 0 in
23:55 44.6 °F 29.5 °F 30.2 in NE 2.3 mph 2.3 mph 55 % 0 in
Meteo Sesrovires
Elogis d' Weather Underground - 3.5 mb

Guio original per  Jim McMurry - jmcmurry@mwt.net Adaptat per a la plantilla per  Wim van der Kuil - Leuven-Template.eu

Trobareu la nostra informacio del temps tambe a:

Weather Underground

AWEKAS